createdAt,value
2019-02-25T00:01:22.005Z,32.40
2019-02-25T00:03:51.366Z,32.60
2019-02-25T00:06:19.733Z,33.00
2019-02-25T00:08:47.519Z,32.70
2019-02-25T00:11:15.469Z,32.80
2019-02-25T00:13:43.291Z,33.00
2019-02-25T00:16:11.145Z,32.70
2019-02-25T00:18:39.023Z,33.80
2019-02-25T00:21:06.883Z,33.50
2019-02-25T00:23:34.674Z,34.20
2019-02-25T00:26:02.576Z,33.30
2019-02-25T00:28:30.356Z,33.40
2019-02-25T00:30:58.186Z,34.30
2019-02-25T00:33:25.849Z,33.40
2019-02-25T00:35:53.701Z,33.20
2019-02-25T00:38:21.516Z,33.70
2019-02-25T00:40:49.460Z,33.80
2019-02-25T00:43:17.135Z,34.00
2019-02-25T00:45:44.975Z,34.50
2019-02-25T00:48:12.630Z,34.60
2019-02-25T00:50:40.469Z,34.30
2019-02-25T00:53:08.141Z,34.10
2019-02-25T00:55:35.979Z,34.30
2019-02-25T00:58:03.866Z,35.60
2019-02-25T01:00:31.617Z,34.60
2019-02-25T01:02:59.493Z,34.90
2019-02-25T01:05:27.242Z,35.30
2019-02-25T01:07:55.018Z,34.90
2019-02-25T01:10:22.685Z,34.90
2019-02-25T01:12:50.507Z,35.30
2019-02-25T01:15:18.246Z,35.10
2019-02-25T01:17:46.006Z,35.20
2019-02-25T01:20:13.749Z,35.60
2019-02-25T01:22:42.748Z,35.80
2019-02-25T01:25:10.590Z,36.00
2019-02-25T01:27:39.742Z,35.80
2019-02-25T01:30:09.577Z,35.60
2019-02-25T01:32:38.934Z,36.20
2019-02-25T01:35:08.641Z,36.10
2019-02-25T01:37:37.977Z,36.40
2019-02-25T01:40:06.899Z,36.40
2019-02-25T01:42:36.239Z,36.70
2019-02-25T01:45:04.573Z,36.90
2019-02-25T01:47:33.900Z,36.80
2019-02-25T01:50:01.778Z,36.30
2019-02-25T01:52:31.075Z,36.70
2019-02-25T01:54:58.905Z,37.00
2019-02-25T01:57:26.790Z,37.30
2019-02-25T01:59:54.625Z,36.90
2019-02-25T02:02:22.320Z,38.00
2019-02-25T02:04:50.165Z,37.20
2019-02-25T02:07:17.959Z,36.60
2019-02-25T02:09:45.792Z,36.90
2019-02-25T02:12:13.460Z,36.60
2019-02-25T02:14:41.386Z,37.10
2019-02-25T02:17:09.065Z,37.80
2019-02-25T02:19:36.905Z,38.20
2019-02-25T02:22:04.550Z,38.30
2019-02-25T02:24:32.385Z,38.00
2019-02-25T02:27:00.229Z,38.20
2019-02-25T02:29:28.152Z,38.40
2019-02-25T02:31:56.006Z,38.20
2019-02-25T02:34:23.919Z,38.30
2019-02-25T02:36:51.684Z,38.10
2019-02-25T02:39:19.547Z,38.10
2019-02-25T02:42:31.559Z,38.10
2019-02-25T02:45:10.374Z,37.60
2019-02-25T02:48:03.930Z,37.60
2019-02-25T02:50:33.321Z,38.00
2019-02-25T02:53:01.002Z,37.70
2019-02-25T02:55:28.743Z,37.90
2019-02-25T02:57:56.401Z,38.60
2019-02-25T03:00:24.093Z,39.50
2019-02-25T03:02:51.933Z,39.20
2019-02-25T03:05:19.691Z,39.30
2019-02-25T03:07:47.445Z,39.10
2019-02-25T03:10:16.950Z,39.20
2019-02-25T03:12:45.089Z,39.70
2019-02-25T03:15:14.794Z,40.00
2019-02-25T03:17:44.161Z,39.40
2019-02-25T03:20:11.978Z,39.20
2019-02-25T03:22:40.213Z,38.80
2019-02-25T03:25:09.961Z,39.20
2019-02-25T03:27:39.312Z,38.80
2019-02-25T03:30:15.219Z,38.60
2019-02-25T03:32:44.756Z,38.60
2019-02-25T03:35:12.618Z,37.90
2019-02-25T03:37:40.864Z,38.10
2019-02-25T03:40:10.810Z,39.00
2019-02-25T03:42:40.217Z,38.80
2019-02-25T03:45:09.068Z,39.00
2019-02-25T03:47:38.430Z,38.90
2019-02-25T03:50:06.412Z,39.00
2019-02-25T03:52:34.546Z,39.30
2019-02-25T03:55:02.446Z,38.90
2019-02-25T03:57:31.785Z,38.80
2019-02-25T03:59:59.676Z,39.30
2019-02-25T04:02:27.534Z,39.60
2019-02-25T04:04:55.487Z,39.00
2019-02-25T04:07:23.261Z,39.00
2019-02-25T04:09:51.214Z,39.20
2019-02-25T04:12:18.865Z,39.10
2019-02-25T04:14:46.633Z,39.60
2019-02-25T04:17:14.318Z,39.50
2019-02-25T04:19:42.147Z,39.60
2019-02-25T04:22:09.912Z,39.60
2019-02-25T04:24:37.685Z,39.30
2019-02-25T04:27:05.455Z,39.70
2019-02-25T04:29:33.208Z,39.40
2019-02-25T04:32:00.988Z,39.80
2019-02-25T04:34:28.726Z,39.60
2019-02-25T04:36:56.405Z,40.10
2019-02-25T04:39:24.261Z,40.10
2019-02-25T04:41:51.954Z,40.80
2019-02-25T04:44:19.718Z,40.10
2019-02-25T04:46:47.583Z,40.70
2019-02-25T04:49:15.342Z,40.30
2019-02-25T04:51:43.035Z,40.60
2019-02-25T04:54:10.870Z,41.30
2019-02-25T04:56:38.729Z,41.90
2019-02-25T04:59:06.382Z,41.90
2019-02-25T05:01:34.209Z,41.60
2019-02-25T05:04:02.002Z,41.70
2019-02-25T05:06:29.839Z,41.70
2019-02-25T05:08:57.633Z,42.40
2019-02-25T05:11:29.648Z,41.50
2019-02-25T05:13:58.271Z,41.00
2019-02-25T05:16:26.131Z,41.40
2019-02-25T05:18:53.805Z,41.20
2019-02-25T05:21:21.537Z,41.40
2019-02-25T05:23:49.335Z,41.70
2019-02-25T05:26:17.240Z,41.60
2019-02-25T05:28:44.910Z,41.70
2019-02-25T05:31:12.679Z,41.30
2019-02-25T05:33:40.366Z,41.10
2019-02-25T05:36:08.212Z,40.80
2019-02-25T05:38:35.985Z,41.30
2019-02-25T05:41:03.917Z,41.70
2019-02-25T05:43:31.676Z,41.00
2019-02-25T05:45:59.428Z,41.20
2019-02-25T05:48:27.218Z,41.20
2019-02-25T05:50:54.986Z,41.10
2019-02-25T05:53:22.698Z,40.60
2019-02-25T05:55:50.587Z,41.30
2019-02-25T05:58:18.442Z,41.10
2019-02-25T06:00:46.299Z,40.80
2019-02-25T06:03:14.015Z,40.50
2019-02-25T06:05:41.677Z,40.50
2019-02-25T06:08:09.550Z,41.00
2019-02-25T06:10:37.315Z,40.70
2019-02-25T06:13:05.146Z,41.00
2019-02-25T06:15:33.705Z,41.30
2019-02-25T06:18:01.630Z,40.20
2019-02-25T06:20:29.406Z,40.50
2019-02-25T06:22:57.259Z,40.80
2019-02-25T06:25:25.002Z,40.30
2019-02-25T06:27:52.824Z,41.20
2019-02-25T06:30:20.827Z,40.90
2019-02-25T06:32:49.169Z,41.10
2019-02-25T06:35:16.958Z,41.20
2019-02-25T06:37:44.743Z,41.50
2019-02-25T06:40:15.399Z,41.30
2019-02-25T06:42:44.682Z,41.40
2019-02-25T06:45:14.202Z,42.10
2019-02-25T06:48:05.598Z,43.00
2019-02-25T06:50:33.214Z,43.20
2019-02-25T06:53:00.991Z,43.30
2019-02-25T06:55:28.694Z,43.20
2019-02-25T06:57:56.458Z,43.20
2019-02-25T07:00:24.194Z,43.20
2019-02-25T07:02:51.991Z,43.90
2019-02-25T07:05:36.540Z,43.80
2019-02-25T07:08:09.662Z,43.70
2019-02-25T07:10:46.326Z,44.00
2019-02-25T07:13:22.357Z,44.20
2019-02-25T07:16:14.275Z,44.10
2019-02-25T07:19:03.100Z,44.00
2019-02-25T07:21:47.525Z,43.80
2019-02-25T07:24:39.441Z,43.60
2019-02-25T07:27:19.959Z,43.60
2019-02-25T07:30:00.143Z,43.60
2019-02-25T07:33:01.515Z,44.00
2019-02-25T07:35:45.898Z,44.60
2019-02-25T07:38:39.529Z,44.30
2019-02-25T07:41:25.845Z,44.40
2019-02-25T07:44:26.851Z,44.40
2019-02-25T07:47:15.701Z,44.60
2019-02-25T07:50:00.331Z,43.90
2019-02-25T07:52:42.973Z,44.00
2019-02-25T07:55:33.097Z,43.10
2019-02-25T07:58:34.001Z,42.90
2019-02-25T08:01:08.490Z,42.80
2019-02-25T08:04:06.091Z,42.20
2019-02-25T08:06:47.248Z,42.10
2019-02-25T08:09:23.007Z,41.40
2019-02-25T08:11:58.344Z,41.50
2019-02-25T08:14:43.849Z,41.60
2019-02-25T08:17:32.699Z,41.50
2019-02-25T08:20:33.818Z,40.80
2019-02-25T08:23:21.700Z,39.70
2019-02-25T08:26:08.870Z,38.20
2019-02-25T08:29:00.941Z,38.80
2019-02-25T08:31:40.903Z,38.90
2019-02-25T08:34:22.177Z,38.50
2019-02-25T08:37:52.343Z,38.50
2019-02-25T08:41:01.119Z,38.70
2019-02-25T08:43:40.605Z,38.70
2019-02-25T08:46:35.475Z,38.70
2019-02-25T08:49:11.433Z,38.90
2019-02-25T08:51:40.758Z,39.10
2019-02-25T08:54:08.638Z,38.80
2019-02-25T08:56:36.437Z,38.80
2019-02-25T08:59:04.217Z,38.20
2019-02-25T09:01:32.118Z,37.50
2019-02-25T09:03:59.899Z,38.50
2019-02-25T09:06:28.231Z,37.80
2019-02-25T09:08:56.482Z,39.10
2019-02-25T09:11:24.319Z,37.70
2019-02-25T09:13:52.058Z,36.10
2019-02-25T09:16:20.036Z,35.90
2019-02-25T09:18:47.937Z,32.90
2019-02-25T09:21:15.759Z,32.00
2019-02-25T09:23:43.588Z,30.50
2019-02-25T09:26:11.991Z,29.40
2019-02-25T09:28:39.894Z,29.30
2019-02-25T09:31:07.914Z,29.20
2019-02-25T09:33:35.652Z,28.30
2019-02-25T09:36:03.686Z,28.00
2019-02-25T09:38:31.445Z,26.40
2019-02-25T09:40:59.242Z,26.90
2019-02-25T09:43:27.144Z,27.30
2019-02-25T09:45:54.919Z,26.20
2019-02-25T09:48:24.059Z,26.60
2019-02-25T09:50:51.981Z,27.10
2019-02-25T09:53:19.778Z,26.60
2019-02-25T09:55:47.487Z,25.60
2019-02-25T09:58:16.789Z,26.90
2019-02-25T10:00:46.095Z,27.50
2019-02-25T10:03:14.149Z,27.70
2019-02-25T10:05:41.914Z,28.50
2019-02-25T10:08:09.731Z,28.50
2019-02-25T10:10:37.678Z,29.10
2019-02-25T10:13:05.504Z,29.10
2019-02-25T10:15:33.311Z,29.90
2019-02-25T10:18:01.347Z,31.00
2019-02-25T10:20:29.087Z,30.40
2019-02-25T10:22:56.952Z,30.90
2019-02-25T10:25:24.701Z,30.80
2019-02-25T10:27:52.698Z,31.20
2019-02-25T10:30:20.647Z,31.80
2019-02-25T10:32:48.458Z,30.50
2019-02-25T10:35:16.266Z,31.10
2019-02-25T10:37:45.725Z,31.80
2019-02-25T10:40:15.461Z,31.90
2019-02-25T10:42:43.746Z,32.20
2019-02-25T10:45:13.627Z,32.30
2019-02-25T10:47:44.323Z,31.10
2019-02-25T10:50:12.914Z,32.50
2019-02-25T10:52:42.848Z,32.50
2019-02-25T10:55:17.199Z,32.30
2019-02-25T10:57:49.110Z,32.90
2019-02-25T11:00:17.239Z,32.50
2019-02-25T11:02:47.309Z,30.30
2019-02-25T11:05:16.372Z,30.50
2019-02-25T11:07:44.190Z,31.00
2019-02-25T11:10:34.947Z,30.50
2019-02-25T11:13:04.490Z,30.10
2019-02-25T11:15:33.763Z,29.70
2019-02-25T11:18:03.902Z,29.60
2019-02-25T11:20:33.401Z,30.30
2019-02-25T11:23:01.903Z,29.60
2019-02-25T11:25:30.178Z,30.60
2019-02-25T11:27:58.414Z,30.10
2019-02-25T11:30:26.315Z,30.90
2019-02-25T11:32:56.170Z,31.40
2019-02-25T11:35:23.995Z,30.20
2019-02-25T11:37:52.471Z,29.90
2019-02-25T11:40:21.467Z,30.40
2019-02-25T11:42:49.297Z,29.90
2019-02-25T11:45:17.255Z,29.80
2019-02-25T11:47:46.086Z,30.10
2019-02-25T11:50:14.013Z,29.90
2019-02-25T11:52:43.225Z,30.20
2019-02-25T11:55:11.211Z,29.30
2019-02-25T11:57:40.303Z,30.00
2019-02-25T12:00:18.904Z,30.30
2019-02-25T12:02:48.393Z,29.70
2019-02-25T12:05:16.743Z,29.60
2019-02-25T12:07:45.487Z,30.90
2019-02-25T12:10:13.563Z,31.10
2019-02-25T12:12:42.530Z,30.20
2019-02-25T12:15:12.258Z,30.40
2019-02-25T12:17:41.713Z,30.80
2019-02-25T12:20:10.542Z,30.30
2019-02-25T12:22:39.587Z,30.60
2019-02-25T12:25:08.442Z,31.50
2019-02-25T12:27:37.954Z,31.70
2019-02-25T12:30:09.895Z,30.30
2019-02-25T12:32:39.353Z,31.20
2019-02-25T12:35:07.449Z,30.90
2019-02-25T12:37:36.494Z,31.30
2019-02-25T12:40:04.539Z,31.60
2019-02-25T12:42:34.027Z,31.70
2019-02-25T12:45:01.858Z,31.60
2019-02-25T12:47:31.323Z,31.50
2019-02-25T12:49:59.348Z,32.10
2019-02-25T12:52:27.478Z,31.50
2019-02-25T12:54:55.355Z,31.20
2019-02-25T12:57:23.277Z,31.40
2019-02-25T12:59:51.019Z,31.90
2019-02-25T13:02:19.144Z,31.20
2019-02-25T13:04:47.131Z,33.00
2019-02-25T13:09:42.696Z,32.70
2019-02-25T13:12:10.459Z,32.20
2019-02-25T13:14:38.540Z,32.60
2019-02-25T13:17:06.380Z,33.10
2019-02-25T13:19:34.262Z,33.30
2019-02-25T13:22:02.116Z,33.40
2019-02-25T13:24:30.899Z,34.10
2019-02-25T13:27:01.030Z,33.90
2019-02-25T13:29:29.467Z,33.20
2019-02-25T13:31:57.333Z,32.60
2019-02-25T13:34:25.241Z,33.20
2019-02-25T13:36:55.924Z,33.10
2019-02-25T13:39:24.220Z,33.90
2019-02-25T13:41:52.210Z,33.90
2019-02-25T13:44:20.140Z,33.80
2019-02-25T13:46:48.030Z,34.30
2019-02-25T13:49:16.071Z,33.00
2019-02-25T13:51:44.138Z,33.70
2019-02-25T13:54:12.207Z,34.20
2019-02-25T13:56:40.364Z,34.40
2019-02-25T13:59:08.746Z,34.90
2019-02-25T14:01:36.699Z,34.10
2019-02-25T14:04:04.640Z,34.90
2019-02-25T14:06:32.540Z,34.80
2019-02-25T14:09:00.556Z,35.10
2019-02-25T14:11:28.722Z,35.60
2019-02-25T14:13:56.545Z,36.10
2019-02-25T14:16:25.225Z,36.40
2019-02-25T14:18:53.188Z,36.30
2019-02-25T14:21:22.022Z,36.40
2019-02-25T14:23:50.167Z,36.30
2019-02-25T14:26:18.952Z,36.00
2019-02-25T14:28:48.703Z,34.90
2019-02-25T14:31:16.915Z,34.80
2019-02-25T14:33:44.744Z,34.80
2019-02-25T14:36:13.043Z,34.90
2019-02-25T14:38:40.926Z,36.40
2019-02-25T14:41:09.042Z,36.10
2019-02-25T14:43:46.066Z,35.90
2019-02-25T14:46:11.824Z,36.00
2019-02-25T14:48:38.436Z,36.40
2019-02-25T14:51:06.278Z,36.90
2019-02-25T14:53:36.958Z,36.50
2019-02-25T14:56:07.024Z,36.50
2019-02-25T14:58:38.149Z,36.40
2019-02-25T15:01:08.611Z,36.40
2019-02-25T15:03:36.557Z,36.00
2019-02-25T15:06:06.394Z,35.60
2019-02-25T15:08:34.400Z,35.60
2019-02-25T15:11:04.432Z,35.50
2019-02-25T15:13:33.248Z,35.40
2019-02-25T15:16:02.192Z,35.80
2019-02-25T15:18:31.257Z,35.20
2019-02-25T15:21:02.097Z,35.50
2019-02-25T15:23:29.683Z,35.20
2019-02-25T15:26:05.018Z,34.60
2019-02-25T15:28:27.551Z,35.10
2019-02-25T15:30:55.486Z,34.10
2019-02-25T15:33:23.775Z,35.20
2019-02-25T15:35:51.602Z,35.40
2019-02-25T15:38:19.631Z,36.10
2019-02-25T15:40:47.719Z,35.60
2019-02-25T15:43:18.270Z,35.50
2019-02-25T15:45:45.928Z,35.50
2019-02-25T15:48:15.883Z,35.20
2019-02-25T15:50:48.024Z,35.50
2019-02-25T15:53:17.458Z,35.10
2019-02-25T15:55:45.520Z,35.50
2019-02-25T15:58:14.340Z,36.20
2019-02-25T16:00:42.674Z,36.10
2019-02-25T16:03:15.928Z,35.90
2019-02-25T16:05:45.555Z,36.00
2019-02-25T16:08:17.101Z,35.80
2019-02-25T16:10:47.010Z,35.90
2019-02-25T16:13:15.886Z,36.90
2019-02-25T16:15:43.869Z,35.90
2019-02-25T16:18:13.604Z,36.20
2019-02-25T16:20:45.731Z,35.90
2019-02-25T16:23:16.028Z,35.70
2019-02-25T16:25:45.645Z,35.50
2019-02-25T16:28:17.453Z,35.60
2019-02-25T16:30:46.900Z,35.70
2019-02-25T16:33:16.549Z,36.00
2019-02-25T16:35:46.131Z,36.50
2019-02-25T16:38:16.570Z,36.40
2019-02-25T16:40:44.856Z,36.50
2019-02-25T16:43:21.010Z,36.30
2019-02-25T16:45:51.974Z,36.10
2019-02-25T16:48:26.449Z,36.40
2019-02-25T16:50:56.217Z,36.50
2019-02-25T16:53:26.434Z,36.60
2019-02-25T16:56:00.560Z,36.60
2019-02-25T16:58:30.340Z,36.80
2019-02-25T17:01:05.358Z,36.90
2019-02-25T17:03:37.588Z,37.10
2019-02-25T17:06:06.777Z,37.20
2019-02-25T17:08:36.059Z,37.40
2019-02-25T17:11:04.637Z,37.40
2019-02-25T17:13:34.746Z,37.60
2019-02-25T17:16:03.380Z,37.70
2019-02-25T17:18:33.119Z,37.60
2019-02-25T17:21:05.160Z,38.00
2019-02-25T17:23:38.874Z,38.00
2019-02-25T17:26:10.545Z,38.30
2019-02-25T17:28:41.688Z,38.40
2019-02-25T17:31:11.531Z,38.40
2019-02-25T18:21:47.687Z,43.20
2019-02-25T18:24:15.780Z,44.10
2019-02-25T18:26:44.453Z,44.20
2019-02-25T18:29:16.012Z,43.90
2019-02-25T18:31:43.460Z,43.90
2019-02-25T18:34:12.914Z,44.20
2019-02-25T18:36:41.553Z,44.50
2019-02-25T18:39:12.166Z,44.70
2019-02-25T18:41:40.439Z,44.10
2019-02-25T18:44:09.200Z,44.70
2019-02-25T18:46:38.220Z,44.50
2019-02-25T18:49:07.473Z,44.50
2019-02-25T18:51:37.451Z,44.40
2019-02-25T18:54:06.055Z,44.80
2019-02-25T18:56:35.467Z,44.80
2019-02-25T18:59:11.250Z,45.00
2019-02-25T19:01:34.163Z,45.00
2019-02-25T19:04:02.103Z,44.80
2019-02-25T19:06:30.135Z,45.00
2019-02-25T19:08:58.347Z,44.80
2019-02-25T19:11:27.793Z,45.10
2019-02-25T19:13:57.555Z,45.20
2019-02-25T19:16:26.294Z,45.60
2019-02-25T19:18:54.312Z,45.90
2019-02-25T19:21:23.318Z,45.90
2019-02-25T19:23:52.198Z,45.90
2019-02-25T19:26:21.911Z,46.20
2019-02-25T19:28:52.322Z,46.40
2019-02-25T19:31:20.044Z,46.70
2019-02-25T19:33:48.454Z,46.70
2019-02-25T19:36:16.935Z,47.10
2019-02-25T19:38:48.166Z,46.90
2019-02-25T19:41:17.835Z,46.90
2019-02-25T19:43:46.030Z,46.80
2019-02-25T19:46:14.323Z,47.10
2019-02-25T19:48:44.747Z,47.50
2019-02-25T19:51:12.723Z,47.70
2019-02-25T19:53:42.849Z,47.50
2019-02-25T19:56:10.579Z,47.10
2019-02-25T19:58:40.741Z,47.00
2019-02-25T20:01:08.998Z,47.90
2019-02-25T20:03:39.910Z,48.50
2019-02-25T20:06:11.146Z,49.10
2019-02-25T20:08:37.598Z,49.10
2019-02-25T20:11:05.472Z,49.20
2019-02-25T20:13:33.460Z,48.80
2019-02-25T20:16:07.924Z,48.50
2019-02-25T20:18:33.276Z,48.00
2019-02-25T20:21:03.942Z,49.30
2019-02-25T20:23:30.966Z,49.20
2019-02-25T20:25:58.859Z,49.00
2019-02-25T20:28:26.910Z,49.10
2019-02-25T20:30:54.822Z,49.60
2019-02-25T20:33:25.696Z,49.30
2019-02-25T20:35:53.532Z,50.10
2019-02-25T20:38:24.566Z,50.80
2019-02-25T20:40:53.098Z,50.80
2019-02-25T20:43:25.757Z,50.30
2019-02-25T20:45:54.646Z,49.90
2019-02-25T20:48:23.546Z,50.40
2019-02-25T20:50:51.508Z,51.50
2019-02-25T20:53:19.455Z,52.30
2019-02-25T20:55:48.611Z,53.00
2019-02-25T20:58:18.811Z,52.30
2019-02-25T21:00:49.182Z,53.30
2019-02-25T21:03:18.970Z,56.00
2019-02-25T21:05:46.955Z,56.70
2019-02-25T21:08:16.843Z,57.20
2019-02-25T21:10:45.307Z,56.20
2019-02-25T21:13:13.227Z,55.60
2019-02-25T21:15:42.833Z,54.80
2019-02-25T21:18:13.387Z,54.50
2019-02-25T21:20:43.017Z,54.30
2019-02-25T21:23:12.570Z,54.60
2019-02-25T21:25:44.207Z,54.10
2019-02-25T21:28:12.408Z,52.70
2019-02-25T21:30:43.227Z,53.20
2019-02-25T21:33:13.341Z,53.80
2019-02-25T21:35:40.200Z,53.20
2019-02-25T21:38:09.378Z,53.50
2019-02-25T21:40:37.347Z,53.20
2019-02-25T21:43:05.486Z,53.10
2019-02-25T21:45:35.328Z,54.00
2019-02-25T21:48:04.943Z,55.00
2019-02-25T21:50:34.010Z,55.10
2019-02-25T21:53:04.856Z,55.10
2019-02-25T21:55:34.461Z,55.40
2019-02-25T21:58:04.721Z,55.00
2019-02-25T22:00:35.137Z,55.90
2019-02-25T22:03:04.440Z,55.70
2019-02-25T22:05:31.971Z,55.60
2019-02-25T22:08:01.832Z,55.90
2019-02-25T22:10:38.805Z,56.70
2019-02-25T22:13:08.661Z,57.50
2019-02-25T22:15:36.075Z,58.70
2019-02-25T22:18:06.094Z,58.90
2019-02-25T22:20:37.655Z,57.80
2019-02-25T22:23:05.670Z,57.40
2019-02-25T22:25:33.436Z,57.20
2019-02-25T22:28:03.215Z,59.10
2019-02-25T22:30:31.381Z,58.60
2019-02-25T22:33:00.696Z,57.90
2019-02-25T22:35:33.105Z,57.90
2019-02-25T22:38:00.414Z,58.60
2019-02-25T22:40:29.947Z,58.10
2019-02-25T22:42:58.894Z,57.40
2019-02-25T22:45:26.883Z,57.60
2019-02-25T22:47:54.752Z,58.30
2019-02-25T22:50:22.492Z,58.00
2019-02-25T22:52:55.629Z,57.90
2019-02-25T22:55:22.215Z,58.20
2019-02-25T22:57:53.532Z,58.40
2019-02-25T23:00:41.610Z,59.40
2019-02-25T23:03:11.379Z,60.50
2019-02-25T23:05:42.990Z,62.30
2019-02-25T23:08:12.802Z,62.30
2019-02-25T23:10:41.958Z,62.30
2019-02-25T23:13:09.601Z,61.50
2019-02-25T23:15:37.411Z,60.70
2019-02-25T23:18:09.653Z,62.10
2019-02-25T23:20:35.043Z,62.70
2019-02-25T23:23:06.510Z,62.00
2019-02-25T23:25:33.914Z,61.40
2019-02-25T23:28:02.948Z,61.20
2019-02-25T23:30:30.774Z,60.90
2019-02-25T23:32:58.502Z,61.30
2019-02-25T23:35:26.430Z,63.00
2019-02-25T23:37:56.266Z,63.00
2019-02-25T23:40:24.258Z,62.00
2019-02-25T23:42:51.994Z,61.90
2019-02-25T23:45:21.228Z,61.20
2019-02-25T23:47:49.723Z,61.20
2019-02-25T23:50:17.577Z,60.60
2019-02-25T23:52:45.562Z,60.90
2019-02-25T23:55:16.553Z,60.70
2019-02-25T23:57:43.147Z,60.60
